Terminal Aerodrome Forecast
Issued by NWS Jackson, MS

Home | Current Version | Previous Version | Text Only | Print | Product List | Glossary On
Versions: 1 2 3 4 5 6 7 8 9 10 11 12
098
FTUS44 KJAN 251723
TAFMEI
TAF
KMEI 251723Z 2518/2618 16012KT P6SM VCSH OVC080
     FM252200 18010KT P6SM VCTS BKN050CB
     FM260400 18005KT 5SM BR BKN008 BKN250
     FM261100 19004KT 2SM BR BKN001 BKN250
     FM261400 20005KT P6SM FEW008 SCT250=

USA.gov is the U.S. government's official web portal to all federal, state and local government web resources and services.